sensor_id;sensor_type;location;lat;lon;timestamp;P1;durP1;ratioP1;P2;durP2;ratioP2
63114;SDS011;49208;50.874;6.466;2022-10-30T06:01:07;11.02;;;4.68;;
63114;SDS011;49208;50.874;6.466;2022-10-30T06:03:32;12.55;;;5.82;;
63114;SDS011;49208;50.874;6.466;2022-10-30T06:05:57;12.18;;;5.35;;
63114;SDS011;49208;50.874;6.466;2022-10-30T06:08:23;10.77;;;5.35;;
63114;SDS011;49208;50.874;6.466;2022-10-30T06:10:48;11.80;;;5.95;;
63114;SDS011;49208;50.874;6.466;2022-10-30T06:13:13;10.27;;;5.28;;
63114;SDS011;49208;50.874;6.466;2022-10-30T06:15:39;11.73;;;5.90;;
63114;SDS011;49208;50.874;6.466;2022-10-30T06:18:04;11.07;;;5.18;;
63114;SDS011;49208;50.874;6.466;2022-10-30T06:20:30;17.55;;;6.45;;
63114;SDS011;49208;50.874;6.466;2022-10-30T06:22:59;11.85;;;5.28;;
63114;SDS011;49208;50.874;6.466;2022-10-30T06:25:27;14.60;;;5.45;;
63114;SDS011;49208;50.874;6.466;2022-10-30T06:27:53;16.92;;;6.07;;
63114;SDS011;49208;50.874;6.466;2022-10-30T06:30:19;12.25;;;5.78;;
63114;SDS011;49208;50.874;6.466;2022-10-30T06:32:45;13.00;;;6.00;;
63114;SDS011;49208;50.874;6.466;2022-10-30T06:35:11;11.50;;;5.78;;
63114;SDS011;49208;50.874;6.466;2022-10-30T06:37:36;12.68;;;6.60;;
63114;SDS011;49208;50.874;6.466;2022-10-30T06:40:05;12.82;;;5.15;;
63114;SDS011;49208;50.874;6.466;2022-10-30T06:42:31;12.23;;;6.20;;
63114;SDS011;49208;50.874;6.466;2022-10-30T06:44:57;11.30;;;5.85;;
63114;SDS011;49208;50.874;6.466;2022-10-30T06:47:22;10.00;;;4.57;;
63114;SDS011;49208;50.874;6.466;2022-10-30T06:49:47;11.02;;;6.22;;
63114;SDS011;49208;50.874;6.466;2022-10-30T06:52:13;12.35;;;6.38;;
63114;SDS011;49208;50.874;6.466;2022-10-30T06:54:38;9.70;;;5.35;;
63114;SDS011;49208;50.874;6.466;2022-10-30T06:57:03;11.93;;;5.45;;
63114;SDS011;49208;50.874;6.466;2022-10-30T06:59:29;12.85;;;6.65;;
63114;SDS011;49208;50.874;6.466;2022-10-30T07:01:54;11.23;;;5.55;;
63114;SDS011;49208;50.874;6.466;2022-10-30T07:04:20;12.30;;;6.22;;
63114;SDS011;49208;50.874;6.466;2022-10-30T07:06:46;7.68;;;4.90;;
63114;SDS011;49208;50.874;6.466;2022-10-30T07:09:11;17.35;;;7.10;;
63114;SDS011;49208;50.874;6.466;2022-10-30T07:11:36;10.30;;;5.03;;
63114;SDS011;49208;50.874;6.466;2022-10-30T07:14:04;12.98;;;6.32;;
63114;SDS011;49208;50.874;6.466;2022-10-30T07:16:29;16.02;;;5.63;;
63114;SDS011;49208;50.874;6.466;2022-10-30T07:18:54;12.68;;;5.88;;
63114;SDS011;49208;50.874;6.466;2022-10-30T07:21:20;14.75;;;6.50;;
63114;SDS011;49208;50.874;6.466;2022-10-30T07:23:45;18.45;;;6.70;;
63114;SDS011;49208;50.874;6.466;2022-10-30T07:26:11;10.65;;;5.57;;
63114;SDS011;49208;50.874;6.466;2022-10-30T07:28:36;12.43;;;6.00;;
63114;SDS011;49208;50.874;6.466;2022-10-30T07:31:01;15.75;;;7.07;;
63114;SDS011;49208;50.874;6.466;2022-10-30T07:33:27;13.07;;;5.65;;
63114;SDS011;49208;50.874;6.466;2022-10-30T07:35:52;10.95;;;5.05;;
63114;SDS011;49208;50.874;6.466;2022-10-30T07:38:17;10.07;;;5.50;;
63114;SDS011;49208;50.874;6.466;2022-10-30T07:40:43;12.43;;;6.05;;
63114;SDS011;49208;50.874;6.466;2022-10-30T07:43:08;15.45;;;5.60;;
63114;SDS011;49208;50.874;6.466;2022-10-30T07:45:37;12.95;;;5.63;;
63114;SDS011;49208;50.874;6.466;2022-10-30T07:48:04;9.18;;;5.43;;
63114;SDS011;49208;50.874;6.466;2022-10-30T07:50:30;10.20;;;4.90;;
63114;SDS011;49208;50.874;6.466;2022-10-30T07:52:55;11.25;;;6.25;;
63114;SDS011;49208;50.874;6.466;2022-10-30T07:55:21;17.80;;;5.57;;
63114;SDS011;49208;50.874;6.466;2022-10-30T07:57:47;16.42;;;6.57;;
63114;SDS011;49208;50.874;6.466;2022-10-30T08:00:13;13.13;;;5.72;;
63114;SDS011;49208;50.874;6.466;2022-10-30T08:02:39;16.15;;;5.72;;
63114;SDS011;49208;50.874;6.466;2022-10-30T08:05:05;20.60;;;7.15;;
63114;SDS011;49208;50.874;6.466;2022-10-30T08:07:31;11.73;;;6.07;;
63114;SDS011;49208;50.874;6.466;2022-10-30T08:09:58;13.25;;;5.22;;
63114;SDS011;49208;50.874;6.466;2022-10-30T08:12:24;15.88;;;5.57;;
63114;SDS011;49208;50.874;6.466;2022-10-30T08:14:50;17.60;;;6.30;;
63114;SDS011;49208;50.874;6.466;2022-10-30T08:17:16;12.25;;;5.50;;
63114;SDS011;49208;50.874;6.466;2022-10-30T08:19:42;23.10;;;5.85;;
63114;SDS011;49208;50.874;6.466;2022-10-30T08:22:09;17.05;;;6.20;;
63114;SDS011;49208;50.874;6.466;2022-10-30T08:24:34;16.27;;;5.43;;
63114;SDS011;49208;50.874;6.466;2022-10-30T08:27:00;17.88;;;6.05;;
63114;SDS011;49208;50.874;6.466;2022-10-30T08:29:25;12.32;;;5.40;;
63114;SDS011;49208;50.874;6.466;2022-10-30T08:31:51;14.57;;;5.38;;
63114;SDS011;49208;50.874;6.466;2022-10-30T08:34:16;11.95;;;4.97;;
63114;SDS011;49208;50.874;6.466;2022-10-30T08:36:41;12.85;;;5.18;;
63114;SDS011;49208;50.874;6.466;2022-10-30T08:39:07;11.90;;;4.72;;
63114;SDS011;49208;50.874;6.466;2022-10-30T08:41:33;13.75;;;5.47;;
63114;SDS011;49208;50.874;6.466;2022-10-30T08:43:59;11.75;;;4.82;;
63114;SDS011;49208;50.874;6.466;2022-10-30T08:46:24;10.40;;;4.57;;
63114;SDS011;49208;50.874;6.466;2022-10-30T08:48:50;13.85;;;5.28;;
63114;SDS011;49208;50.874;6.466;2022-10-30T08:51:15;17.67;;;5.28;;
63114;SDS011;49208;50.874;6.466;2022-10-30T08:53:40;19.20;;;5.68;;
63114;SDS011;49208;50.874;6.466;2022-10-30T08:56:06;21.70;;;6.47;;
63114;SDS011;49208;50.874;6.466;2022-10-30T08:58:31;21.67;;;6.85;;
63114;SDS011;49208;50.874;6.466;2022-10-30T09:00:57;20.00;;;6.57;;
63114;SDS011;49208;50.874;6.466;2022-10-30T09:03:22;19.50;;;6.55;;
63114;SDS011;49208;50.874;6.466;2022-10-30T09:05:48;18.40;;;6.22;;
63114;SDS011;49208;50.874;6.466;2022-10-30T09:08:13;18.35;;;5.72;;
63114;SDS011;49208;50.874;6.466;2022-10-30T09:10:38;17.80;;;5.55;;
63114;SDS011;49208;50.874;6.466;2022-10-30T09:13:04;10.35;;;4.65;;
63114;SDS011;49208;50.874;6.466;2022-10-30T09:15:29;12.27;;;4.50;;
63114;SDS011;49208;50.874;6.466;2022-10-30T09:17:59;11.30;;;5.28;;
63114;SDS011;49208;50.874;6.466;2022-10-30T09:20:26;14.00;;;5.10;;
63114;SDS011;49208;50.874;6.466;2022-10-30T09:22:51;15.82;;;5.57;;
63114;SDS011;49208;50.874;6.466;2022-10-30T09:25:17;11.30;;;5.53;;
63114;SDS011;49208;50.874;6.466;2022-10-30T09:27:43;10.57;;;5.10;;
63114;SDS011;49208;50.874;6.466;2022-10-30T09:30:08;12.43;;;4.32;;
63114;SDS011;49208;50.874;6.466;2022-10-30T09:32:34;11.88;;;5.20;;
63114;SDS011;49208;50.874;6.466;2022-10-30T09:35:00;9.98;;;4.45;;
63114;SDS011;49208;50.874;6.466;2022-10-30T09:37:26;15.48;;;5.20;;
63114;SDS011;49208;50.874;6.466;2022-10-30T09:39:51;10.18;;;4.70;;
63114;SDS011;49208;50.874;6.466;2022-10-30T09:42:21;8.65;;;4.57;;
63114;SDS011;49208;50.874;6.466;2022-10-30T09:50:28;10.50;;;4.43;;
63114;SDS011;49208;50.874;6.466;2022-10-30T09:53:06;12.57;;;4.53;;
63114;SDS011;49208;50.874;6.466;2022-10-30T09:55:44;11.98;;;4.90;;
63114;SDS011;49208;50.874;6.466;2022-10-30T09:58:32;7.78;;;4.55;;
63114;SDS011;49208;50.874;6.466;2022-10-30T10:04:02;11.48;;;4.95;;
63114;SDS011;49208;50.874;6.466;2022-10-30T10:06:33;10.52;;;4.80;;
63114;SDS011;49208;50.874;6.466;2022-10-30T10:09:08;10.27;;;4.43;;
63114;SDS011;49208;50.874;6.466;2022-10-30T10:11:41;10.77;;;4.80;;
63114;SDS011;49208;50.874;6.466;2022-10-30T10:14:16;11.75;;;4.47;;
63114;SDS011;49208;50.874;6.466;2022-10-30T10:16:53;10.90;;;4.38;;
63114;SDS011;49208;50.874;6.466;2022-10-30T10:24:49;7.75;;;3.53;;
63114;SDS011;49208;50.874;6.466;2022-10-30T10:30:00;13.60;;;4.78;;
63114;SDS011;49208;50.874;6.466;2022-10-30T10:38:29;14.60;;;4.55;;
63114;SDS011;49208;50.874;6.466;2022-10-30T10:52:08;11.95;;;3.95;;
63114;SDS011;49208;50.874;6.466;2022-10-30T10:54:38;12.32;;;4.50;;
63114;SDS011;49208;50.874;6.466;2022-10-30T10:57:07;11.98;;;5.55;;
63114;SDS011;49208;50.874;6.466;2022-10-30T10:59:48;7.95;;;4.25;;
63114;SDS011;49208;50.874;6.466;2022-10-30T11:02:37;9.88;;;4.43;;
63114;SDS011;49208;50.874;6.466;2022-10-30T11:08:05;10.85;;;4.10;;
63114;SDS011;49208;50.874;6.466;2022-10-30T11:10:38;9.80;;;4.53;;
63114;SDS011;49208;50.874;6.466;2022-10-30T11:13:04;11.77;;;4.40;;
63114;SDS011;49208;50.874;6.466;2022-10-30T11:18:20;13.90;;;4.65;;
63114;SDS011;49208;50.874;6.466;2022-10-30T11:21:02;9.98;;;4.22;;
63114;SDS011;49208;50.874;6.466;2022-10-30T11:23:36;12.27;;;4.32;;
63114;SDS011;49208;50.874;6.466;2022-10-30T11:26:26;9.60;;;4.22;;
63114;SDS011;49208;50.874;6.466;2022-10-30T11:28:58;9.48;;;3.83;;
63114;SDS011;49208;50.874;6.466;2022-10-30T11:31:28;10.43;;;5.30;;
63114;SDS011;49208;50.874;6.466;2022-10-30T11:34:11;11.30;;;5.00;;
63114;SDS011;49208;50.874;6.466;2022-10-30T11:36:38;10.20;;;4.72;;
63114;SDS011;49208;50.874;6.466;2022-10-30T11:39:10;11.60;;;4.45;;
63114;SDS011;49208;50.874;6.466;2022-10-30T11:41:41;10.55;;;4.40;;
63114;SDS011;49208;50.874;6.466;2022-10-30T11:44:10;10.68;;;4.90;;
63114;SDS011;49208;50.874;6.466;2022-10-30T11:46:36;10.45;;;4.45;;
63114;SDS011;49208;50.874;6.466;2022-10-30T11:49:02;11.50;;;5.47;;
63114;SDS011;49208;50.874;6.466;2022-10-30T11:51:28;14.45;;;5.20;;
63114;SDS011;49208;50.874;6.466;2022-10-30T11:53:57;15.30;;;5.95;;
63114;SDS011;49208;50.874;6.466;2022-10-30T11:56:22;13.27;;;5.43;;
63114;SDS011;49208;50.874;6.466;2022-10-30T11:58:52;15.02;;;5.50;;
63114;SDS011;49208;50.874;6.466;2022-10-30T12:01:21;14.40;;;5.85;;
63114;SDS011;49208;50.874;6.466;2022-10-30T12:03:50;15.13;;;5.53;;
63114;SDS011;49208;50.874;6.466;2022-10-30T12:11:31;16.80;;;4.82;;
63114;SDS011;49208;50.874;6.466;2022-10-30T12:13:58;9.48;;;4.13;;
63114;SDS011;49208;50.874;6.466;2022-10-30T12:16:25;11.38;;;4.80;;
63114;SDS011;49208;50.874;6.466;2022-10-30T12:18:58;11.52;;;5.32;;
63114;SDS011;49208;50.874;6.466;2022-10-30T12:21:27;10.52;;;4.28;;
63114;SDS011;49208;50.874;6.466;2022-10-30T12:23:59;11.63;;;4.85;;
63114;SDS011;49208;50.874;6.466;2022-10-30T12:26:30;11.07;;;5.35;;
63114;SDS011;49208;50.874;6.466;2022-10-30T12:28:59;11.73;;;4.65;;
63114;SDS011;49208;50.874;6.466;2022-10-30T12:31:29;14.52;;;5.07;;
63114;SDS011;49208;50.874;6.466;2022-10-30T12:36:45;15.48;;;5.72;;
63114;SDS011;49208;50.874;6.466;2022-10-30T12:44:46;15.77;;;5.28;;
63114;SDS011;49208;50.874;6.466;2022-10-30T12:49:49;15.68;;;4.72;;
63114;SDS011;49208;50.874;6.466;2022-10-30T12:57:57;14.25;;;5.00;;
63114;SDS011;49208;50.874;6.466;2022-10-30T13:00:27;10.90;;;4.28;;
63114;SDS011;49208;50.874;6.466;2022-10-30T13:03:01;14.18;;;4.80;;
63114;SDS011;49208;50.874;6.466;2022-10-30T13:05:52;13.60;;;4.82;;
63114;SDS011;49208;50.874;6.466;2022-10-30T13:08:22;12.57;;;5.00;;
63114;SDS011;49208;50.874;6.466;2022-10-30T13:13:42;12.85;;;4.75;;
63114;SDS011;49208;50.874;6.466;2022-10-30T13:16:17;12.13;;;4.35;;
63114;SDS011;49208;50.874;6.466;2022-10-30T13:18:46;13.52;;;5.05;;
63114;SDS011;49208;50.874;6.466;2022-10-30T13:23:48;11.70;;;4.85;;
63114;SDS011;49208;50.874;6.466;2022-10-30T13:26:29;12.65;;;4.10;;
63114;SDS011;49208;50.874;6.466;2022-10-30T13:39:51;10.82;;;4.68;;
63114;SDS011;49208;50.874;6.466;2022-10-30T13:42:31;16.83;;;4.72;;
63114;SDS011;49208;50.874;6.466;2022-10-30T13:53:15;11.07;;;4.32;;
63114;SDS011;49208;50.874;6.466;2022-10-30T13:55:44;7.97;;;3.95;;
63114;SDS011;49208;50.874;6.466;2022-10-30T14:01:00;8.73;;;3.33;;
63114;SDS011;49208;50.874;6.466;2022-10-30T14:03:36;10.27;;;3.85;;
63114;SDS011;49208;50.874;6.466;2022-10-30T14:11:51;8.73;;;3.30;;
63114;SDS011;49208;50.874;6.466;2022-10-30T14:14:28;9.75;;;3.53;;
63114;SDS011;49208;50.874;6.466;2022-10-30T14:22:29;8.25;;;3.38;;
63114;SDS011;49208;50.874;6.466;2022-10-30T14:24:55;9.25;;;2.80;;
63114;SDS011;49208;50.874;6.466;2022-10-30T14:27:25;5.77;;;2.60;;
63114;SDS011;49208;50.874;6.466;2022-10-30T14:29:53;6.03;;;2.97;;
63114;SDS011;49208;50.874;6.466;2022-10-30T14:39:46;6.68;;;3.08;;
63114;SDS011;49208;50.874;6.466;2022-10-30T14:42:21;11.90;;;3.80;;
63114;SDS011;49208;50.874;6.466;2022-10-30T14:45:14;9.30;;;3.25;;
63114;SDS011;49208;50.874;6.466;2022-10-30T14:58:26;9.50;;;3.97;;
63114;SDS011;49208;50.874;6.466;2022-10-30T15:01:18;8.77;;;4.00;;
63114;SDS011;49208;50.874;6.466;2022-10-30T15:11:46;9.70;;;4.50;;
63114;SDS011;49208;50.874;6.466;2022-10-30T15:14:35;7.30;;;3.63;;
63114;SDS011;49208;50.874;6.466;2022-10-30T15:17:04;7.72;;;3.53;;
63114;SDS011;49208;50.874;6.466;2022-10-30T15:19:29;7.53;;;3.50;;
63114;SDS011;49208;50.874;6.466;2022-10-30T15:21:57;8.20;;;3.42;;
63114;SDS011;49208;50.874;6.466;2022-10-30T15:24:24;8.10;;;2.75;;
63114;SDS011;49208;50.874;6.466;2022-10-30T15:26:53;5.95;;;2.80;;
63114;SDS011;49208;50.874;6.466;2022-10-30T15:29:26;6.32;;;2.30;;
63114;SDS011;49208;50.874;6.466;2022-10-30T15:31:56;7.45;;;2.53;;
63114;SDS011;49208;50.874;6.466;2022-10-30T15:34:23;7.43;;;2.53;;
63114;SDS011;49208;50.874;6.466;2022-10-30T15:36:50;8.35;;;2.80;;
63114;SDS011;49208;50.874;6.466;2022-10-30T15:39:16;7.47;;;2.88;;
63114;SDS011;49208;50.874;6.466;2022-10-30T15:44:20;5.55;;;2.33;;
63114;SDS011;49208;50.874;6.466;2022-10-30T15:46:52;8.02;;;3.03;;
63114;SDS011;49208;50.874;6.466;2022-10-30T15:49:26;7.03;;;2.83;;
63114;SDS011;49208;50.874;6.466;2022-10-30T15:51:54;8.30;;;2.30;;
63114;SDS011;49208;50.874;6.466;2022-10-30T15:54:20;8.15;;;2.30;;
63114;SDS011;49208;50.874;6.466;2022-10-30T15:56:49;6.35;;;2.30;;
63114;SDS011;49208;50.874;6.466;2022-10-30T15:59:29;10.88;;;3.42;;
63114;SDS011;49208;50.874;6.466;2022-10-30T16:01:58;7.60;;;2.50;;
63114;SDS011;49208;50.874;6.466;2022-10-30T16:04:24;5.47;;;2.85;;
63114;SDS011;49208;50.874;6.466;2022-10-30T16:07:00;6.33;;;2.60;;
63114;SDS011;49208;50.874;6.466;2022-10-30T16:09:35;6.60;;;3.05;;
63114;SDS011;49208;50.874;6.466;2022-10-30T16:12:00;5.63;;;2.83;;
63114;SDS011;49208;50.874;6.466;2022-10-30T16:14:26;7.35;;;2.85;;
63114;SDS011;49208;50.874;6.466;2022-10-30T16:16:54;11.50;;;3.38;;
63114;SDS011;49208;50.874;6.466;2022-10-30T16:21:51;7.07;;;2.50;;
63114;SDS011;49208;50.874;6.466;2022-10-30T16:24:18;7.20;;;2.65;;
63114;SDS011;49208;50.874;6.466;2022-10-30T16:27:03;6.22;;;2.60;;
63114;SDS011;49208;50.874;6.466;2022-10-30T16:29:30;9.00;;;3.10;;
63114;SDS011;49208;50.874;6.466;2022-10-30T16:31:56;8.48;;;3.17;;
63114;SDS011;49208;50.874;6.466;2022-10-30T16:34:26;6.95;;;2.95;;
63114;SDS011;49208;50.874;6.466;2022-10-30T16:37:00;8.48;;;2.88;;
63114;SDS011;49208;50.874;6.466;2022-10-30T16:39:28;7.47;;;2.70;;
63114;SDS011;49208;50.874;6.466;2022-10-30T16:41:56;5.70;;;2.78;;
63114;SDS011;49208;50.874;6.466;2022-10-30T16:44:32;6.25;;;2.40;;
63114;SDS011;49208;50.874;6.466;2022-10-30T16:50:04;5.78;;;2.63;;
63114;SDS011;49208;50.874;6.466;2022-10-30T16:52:30;7.20;;;2.75;;
63114;SDS011;49208;50.874;6.466;2022-10-30T16:55:21;9.68;;;3.10;;
63114;SDS011;49208;50.874;6.466;2022-10-30T17:00:18;8.02;;;2.60;;
63114;SDS011;49208;50.874;6.466;2022-10-30T17:02:49;5.72;;;2.70;;
63114;SDS011;49208;50.874;6.466;2022-10-30T17:07:58;8.57;;;3.60;;
63114;SDS011;49208;50.874;6.466;2022-10-30T17:18:40;6.28;;;2.95;;
63114;SDS011;49208;50.874;6.466;2022-10-30T17:21:09;8.98;;;2.92;;
63114;SDS011;49208;50.874;6.466;2022-10-30T17:23:36;8.73;;;3.33;;
63114;SDS011;49208;50.874;6.466;2022-10-30T17:26:09;7.07;;;3.05;;
63114;SDS011;49208;50.874;6.466;2022-10-30T17:28:36;7.30;;;2.60;;
63114;SDS011;49208;50.874;6.466;2022-10-30T17:31:18;10.97;;;3.60;;
63114;SDS011;49208;50.874;6.466;2022-10-30T17:33:44;8.95;;;3.78;;
63114;SDS011;49208;50.874;6.466;2022-10-30T17:36:10;8.75;;;2.85;;
63114;SDS011;49208;50.874;6.466;2022-10-30T17:38:36;10.77;;;3.78;;
63114;SDS011;49208;50.874;6.466;2022-10-30T17:41:02;7.18;;;3.20;;
63114;SDS011;49208;50.874;6.466;2022-10-30T17:43:29;12.93;;;4.43;;
63114;SDS011;49208;50.874;6.466;2022-10-30T17:45:57;10.15;;;4.10;;
63114;SDS011;49208;50.874;6.466;2022-10-30T17:48:24;12.25;;;3.75;;
63114;SDS011;49208;50.874;6.466;2022-10-30T17:50:51;11.50;;;3.40;;
63114;SDS011;49208;50.874;6.466;2022-10-30T17:53:17;10.27;;;3.22;;
63114;SDS011;49208;50.874;6.466;2022-10-30T17:55:50;8.48;;;3.80;;
63114;SDS011;49208;50.874;6.466;2022-10-30T17:58:21;8.68;;;3.00;;
63114;SDS011;49208;50.874;6.466;2022-10-30T18:00:46;9.25;;;3.08;;
63114;SDS011;49208;50.874;6.466;2022-10-30T18:03:12;10.00;;;3.80;;
63114;SDS011;49208;50.874;6.466;2022-10-30T18:05:37;8.25;;;4.18;;
63114;SDS011;49208;50.874;6.466;2022-10-30T18:08:04;9.60;;;3.75;;
63114;SDS011;49208;50.874;6.466;2022-10-30T18:10:30;9.93;;;4.13;;
63114;SDS011;49208;50.874;6.466;2022-10-30T18:12:56;11.90;;;3.83;;
63114;SDS011;49208;50.874;6.466;2022-10-30T18:15:43;11.13;;;4.50;;
63114;SDS011;49208;50.874;6.466;2022-10-30T18:18:18;13.65;;;4.07;;
63114;SDS011;49208;50.874;6.466;2022-10-30T18:20:43;9.88;;;4.60;;
63114;SDS011;49208;50.874;6.466;2022-10-30T18:23:19;8.63;;;4.18;;
63114;SDS011;49208;50.874;6.466;2022-10-30T18:25:47;8.73;;;3.75;;
63114;SDS011;49208;50.874;6.466;2022-10-30T18:28:13;8.23;;;4.03;;
63114;SDS011;49208;50.874;6.466;2022-10-30T18:30:38;8.48;;;4.03;;
63114;SDS011;49208;50.874;6.466;2022-10-30T18:33:04;9.40;;;3.22;;
63114;SDS011;49208;50.874;6.466;2022-10-30T18:37:55;10.32;;;3.83;;
63114;SDS011;49208;50.874;6.466;2022-10-30T18:40:21;7.10;;;3.60;;
63114;SDS011;49208;50.874;6.466;2022-10-30T18:42:46;6.82;;;3.20;;
63114;SDS011;49208;50.874;6.466;2022-10-30T18:47:49;6.57;;;3.55;;
63114;SDS011;49208;50.874;6.466;2022-10-30T18:50:16;8.10;;;3.70;;
63114;SDS011;49208;50.874;6.466;2022-10-30T18:52:43;12.45;;;4.40;;
63114;SDS011;49208;50.874;6.466;2022-10-30T18:55:20;8.82;;;4.55;;
63114;SDS011;49208;50.874;6.466;2022-10-30T18:57:48;7.95;;;3.22;;
63114;SDS011;49208;50.874;6.466;2022-10-30T19:00:15;9.73;;;3.50;;
63114;SDS011;49208;50.874;6.466;2022-10-30T19:02:42;7.07;;;3.30;;
63114;SDS011;49208;50.874;6.466;2022-10-30T19:05:16;7.97;;;3.15;;
63114;SDS011;49208;50.874;6.466;2022-10-30T19:07:44;10.77;;;3.67;;
63114;SDS011;49208;50.874;6.466;2022-10-30T19:10:10;7.05;;;3.42;;
63114;SDS011;49208;50.874;6.466;2022-10-30T19:12:35;7.03;;;3.55;;
63114;SDS011;49208;50.874;6.466;2022-10-30T19:15:01;9.15;;;3.47;;
63114;SDS011;49208;50.874;6.466;2022-10-30T19:17:26;9.05;;;3.20;;
63114;SDS011;49208;50.874;6.466;2022-10-30T19:19:52;6.60;;;3.72;;
63114;SDS011;49208;50.874;6.466;2022-10-30T19:22:17;8.55;;;3.90;;
63114;SDS011;49208;50.874;6.466;2022-10-30T19:24:42;8.90;;;4.45;;
63114;SDS011;49208;50.874;6.466;2022-10-30T19:27:08;9.23;;;3.70;;
63114;SDS011;49208;50.874;6.466;2022-10-30T19:29:33;11.73;;;4.82;;
63114;SDS011;49208;50.874;6.466;2022-10-30T19:31:58;10.43;;;4.10;;
63114;SDS011;49208;50.874;6.466;2022-10-30T19:34:24;9.00;;;3.97;;
63114;SDS011;49208;50.874;6.466;2022-10-30T19:36:49;10.20;;;4.45;;
63114;SDS011;49208;50.874;6.466;2022-10-30T19:39:15;7.85;;;3.60;;
63114;SDS011;49208;50.874;6.466;2022-10-30T19:41:43;10.82;;;4.22;;
63114;SDS011;49208;50.874;6.466;2022-10-30T19:44:08;6.78;;;3.58;;
63114;SDS011;49208;50.874;6.466;2022-10-30T19:46:35;7.25;;;3.65;;
63114;SDS011;49208;50.874;6.466;2022-10-30T19:49:22;11.88;;;5.88;;
63114;SDS011;49208;50.874;6.466;2022-10-30T19:51:47;13.60;;;6.13;;
63114;SDS011;49208;50.874;6.466;2022-10-30T19:54:12;15.63;;;6.70;;
63114;SDS011;49208;50.874;6.466;2022-10-30T19:56:38;17.20;;;6.70;;
63114;SDS011;49208;50.874;6.466;2022-10-30T19:59:07;11.07;;;5.95;;
63114;SDS011;49208;50.874;6.466;2022-10-30T20:01:34;10.27;;;5.60;;
63114;SDS011;49208;50.874;6.466;2022-10-30T20:03:59;12.65;;;5.03;;
63114;SDS011;49208;50.874;6.466;2022-10-30T20:06:24;9.07;;;5.03;;
63114;SDS011;49208;50.874;6.466;2022-10-30T20:08:51;10.18;;;5.00;;
63114;SDS011;49208;50.874;6.466;2022-10-30T20:11:16;6.70;;;4.22;;
63114;SDS011;49208;50.874;6.466;2022-10-30T20:13:41;8.20;;;4.07;;
63114;SDS011;49208;50.874;6.466;2022-10-30T20:16:07;8.57;;;4.60;;
63114;SDS011;49208;50.874;6.466;2022-10-30T20:18:33;11.35;;;5.13;;
63114;SDS011;49208;50.874;6.466;2022-10-30T20:21:00;10.55;;;5.07;;
63114;SDS011;49208;50.874;6.466;2022-10-30T20:23:32;10.18;;;4.75;;
63114;SDS011;49208;50.874;6.466;2022-10-30T20:26:40;11.55;;;5.53;;
63114;SDS011;49208;50.874;6.466;2022-10-30T20:28:50;9.65;;;4.57;;
63114;SDS011;49208;50.874;6.466;2022-10-30T20:31:16;9.85;;;5.22;;
63114;SDS011;49208;50.874;6.466;2022-10-30T20:33:42;9.45;;;5.10;;
63114;SDS011;49208;50.874;6.466;2022-10-30T20:36:09;13.30;;;5.30;;
63114;SDS011;49208;50.874;6.466;2022-10-30T20:38:36;11.23;;;4.32;;
63114;SDS011;49208;50.874;6.466;2022-10-30T20:41:02;13.68;;;5.38;;
63114;SDS011;49208;50.874;6.466;2022-10-30T20:43:33;10.40;;;4.70;;
63114;SDS011;49208;50.874;6.466;2022-10-30T20:46:00;12.52;;;5.05;;
63114;SDS011;49208;50.874;6.466;2022-10-30T20:48:27;9.18;;;4.78;;
63114;SDS011;49208;50.874;6.466;2022-10-30T20:50:54;8.85;;;4.32;;
63114;SDS011;49208;50.874;6.466;2022-10-30T20:53:21;8.52;;;4.30;;
63114;SDS011;49208;50.874;6.466;2022-10-30T20:55:46;9.40;;;4.60;;
63114;SDS011;49208;50.874;6.466;2022-10-30T20:58:12;14.48;;;6.20;;
63114;SDS011;49208;50.874;6.466;2022-10-30T21:00:37;13.38;;;6.07;;
63114;SDS011;49208;50.874;6.466;2022-10-30T21:03:03;14.73;;;7.63;;
63114;SDS011;49208;50.874;6.466;2022-10-30T21:05:33;15.35;;;5.38;;
63114;SDS011;49208;50.874;6.466;2022-10-30T21:08:00;12.23;;;5.65;;
63114;SDS011;49208;50.874;6.466;2022-10-30T21:10:26;12.95;;;5.25;;
63114;SDS011;49208;50.874;6.466;2022-10-30T21:12:51;8.50;;;5.20;;
63114;SDS011;49208;50.874;6.466;2022-10-30T21:15:16;12.50;;;5.35;;
63114;SDS011;49208;50.874;6.466;2022-10-30T21:17:42;10.57;;;5.30;;
63114;SDS011;49208;50.874;6.466;2022-10-30T21:20:07;9.38;;;4.82;;
63114;SDS011;49208;50.874;6.466;2022-10-30T21:22:33;11.07;;;5.30;;
63114;SDS011;49208;50.874;6.466;2022-10-30T21:24:58;13.80;;;5.15;;
63114;SDS011;49208;50.874;6.466;2022-10-30T21:27:24;9.45;;;4.95;;
63114;SDS011;49208;50.874;6.466;2022-10-30T21:29:49;8.38;;;4.63;;
63114;SDS011;49208;50.874;6.466;2022-10-30T21:32:14;9.32;;;4.90;;
63114;SDS011;49208;50.874;6.466;2022-10-30T21:34:40;11.35;;;4.53;;
63114;SDS011;49208;50.874;6.466;2022-10-30T21:37:05;11.85;;;5.10;;
63114;SDS011;49208;50.874;6.466;2022-10-30T21:39:31;6.97;;;3.72;;
63114;SDS011;49208;50.874;6.466;2022-10-30T21:41:56;10.88;;;5.18;;
63114;SDS011;49208;50.874;6.466;2022-10-30T21:44:21;10.88;;;5.20;;
63114;SDS011;49208;50.874;6.466;2022-10-30T21:46:47;11.18;;;5.93;;
63114;SDS011;49208;50.874;6.466;2022-10-30T21:49:14;9.98;;;4.90;;
63114;SDS011;49208;50.874;6.466;2022-10-30T21:51:41;8.73;;;4.43;;
63114;SDS011;49208;50.874;6.466;2022-10-30T21:54:09;11.30;;;4.85;;
63114;SDS011;49208;50.874;6.466;2022-10-30T21:56:35;8.77;;;4.95;;
63114;SDS011;49208;50.874;6.466;2022-10-30T21:59:00;9.98;;;5.38;;
63114;SDS011;49208;50.874;6.466;2022-10-30T22:01:28;11.57;;;6.18;;
63114;SDS011;49208;50.874;6.466;2022-10-30T22:03:57;11.95;;;5.80;;
63114;SDS011;49208;50.874;6.466;2022-10-30T22:06:23;10.75;;;5.22;;
63114;SDS011;49208;50.874;6.466;2022-10-30T22:08:50;10.63;;;5.47;;
63114;SDS011;49208;50.874;6.466;2022-10-30T22:11:17;9.02;;;4.90;;
63114;SDS011;49208;50.874;6.466;2022-10-30T22:13:43;11.65;;;5.03;;
63114;SDS011;49208;50.874;6.466;2022-10-30T22:16:11;11.48;;;5.25;;
63114;SDS011;49208;50.874;6.466;2022-10-30T22:18:37;9.35;;;4.78;;
63114;SDS011;49208;50.874;6.466;2022-10-30T22:21:04;11.10;;;5.18;;
63114;SDS011;49208;50.874;6.466;2022-10-30T22:23:31;9.57;;;4.50;;
63114;SDS011;49208;50.874;6.466;2022-10-30T22:25:58;8.10;;;4.55;;
63114;SDS011;49208;50.874;6.466;2022-10-30T22:28:25;10.65;;;4.78;;
63114;SDS011;49208;50.874;6.466;2022-10-30T22:30:51;10.60;;;5.40;;
63114;SDS011;49208;50.874;6.466;2022-10-30T22:33:17;9.73;;;4.95;;
63114;SDS011;49208;50.874;6.466;2022-10-30T22:35:43;13.57;;;5.27;;
63114;SDS011;49208;50.874;6.466;2022-10-30T22:38:09;15.35;;;5.70;;
63114;SDS011;49208;50.874;6.466;2022-10-30T22:40:35;13.85;;;5.43;;
63114;SDS011;49208;50.874;6.466;2022-10-30T22:43:00;12.13;;;4.53;;
63114;SDS011;49208;50.874;6.466;2022-10-30T22:45:25;11.40;;;5.60;;
63114;SDS011;49208;50.874;6.466;2022-10-30T22:47:51;9.77;;;5.05;;
63114;SDS011;49208;50.874;6.466;2022-10-30T22:50:16;10.25;;;4.85;;
63114;SDS011;49208;50.874;6.466;2022-10-30T22:52:41;11.00;;;4.72;;
63114;SDS011;49208;50.874;6.466;2022-10-30T22:55:07;12.52;;;5.13;;
63114;SDS011;49208;50.874;6.466;2022-10-30T22:57:32;9.40;;;5.25;;
63114;SDS011;49208;50.874;6.466;2022-10-30T22:59:57;11.13;;;4.95;;
63114;SDS011;49208;50.874;6.466;2022-10-30T23:02:23;9.48;;;4.68;;
63114;SDS011;49208;50.874;6.466;2022-10-30T23:04:48;10.48;;;4.72;;
63114;SDS011;49208;50.874;6.466;2022-10-30T23:07:13;8.32;;;4.85;;
63114;SDS011;49208;50.874;6.466;2022-10-30T23:09:40;11.45;;;5.03;;
63114;SDS011;49208;50.874;6.466;2022-10-30T23:12:06;10.73;;;4.93;;
63114;SDS011;49208;50.874;6.466;2022-10-30T23:14:31;10.60;;;4.78;;
63114;SDS011;49208;50.874;6.466;2022-10-30T23:16:57;10.95;;;4.85;;
63114;SDS011;49208;50.874;6.466;2022-10-30T23:19:24;8.90;;;4.75;;